»·PEaware :: PH-TIM KBUR-KSBD

PH-TIM :: KBUR-KSBD

FLIGHT INFORMATION

Flight Status: Arrived
Operator: Privately registered:
Netherlands
More flights under this callsign
Pilot: Tim P. (6337)
Aircraft: CESSNA 172 SKYHAWK
(C172)
More flights by this aircraft type
Origin: KBUR Bob Hope-Burbank
United States
Destination: KSBD San Bernardino Intl
United States
More flights between these airports :: More routes between these airports
Route: +
File this flight plan on PilotEdge
Remarks:
Altitude:
(Current/Filed)
0ft
Speed:
(Current/Filed)
0kts
Departed: 11-Oct-17 09:51 AM
Arrived: 11-Oct-17 11:02 AM
Distance/Time
Traveled:
61nm/1:11
Distance/Time
To Go:
Arrived

Flight Plot

Page will automatically refresh every two minutes.


Map Options




Map Legend


Flown Route
Filed Route
Departure Airport
Arrival Airport
Navaid (VOR, NDB)
Fix

Horizontal Profiles

Position Reports

Time Latitude Longitude Heading Altitude Ground
Speed
11-Oct-17 09:49 34.262713 -118.415571 317 1004ft 0kts
11-Oct-17 09:49 34.262524 -118.416238 286 995ft 6kts
11-Oct-17 09:51 34.263791 -118.417606 198 998ft 0kts
11-Oct-17 09:52 34.263792 -118.417606 198 998ft 0kts
11-Oct-17 09:52 34.263792 -118.417606 198 998ft 0kts
11-Oct-17 09:54 34.263792 -118.417606 198 998ft 0kts
11-Oct-17 09:54 34.263755 -118.417637 223 998ft 3kts
11-Oct-17 09:55 34.253709 -118.406717 115 1388ft 80kts
11-Oct-17 09:57 34.242099 -118.378464 116 2361ft 82kts
11-Oct-17 09:58 34.231657 -118.353157 116 3018ft 97kts
11-Oct-17 09:58 34.221356 -118.328251 116 3135ft 98kts
11-Oct-17 09:59 34.207749 -118.300481 122 3721ft 98kts
11-Oct-17 10:00 34.193663 -118.272544 122 4319ft 98kts
11-Oct-17 10:01 34.179737 -118.243449 121 4918ft 100kts
11-Oct-17 10:02 34.165272 -118.214367 118 5466ft 102kts
11-Oct-17 10:03 34.150962 -118.183015 119 5736ft 116kts
11-Oct-17 10:04 34.133943 -118.148269 118 5518ft 119kts
11-Oct-17 10:05 34.117903 -118.114137 117 5483ft 115kts
11-Oct-17 10:06 34.103701 -118.079505 112 5457ft 115kts
11-Oct-17 10:07 34.092564 -118.043852 110 5455ft 115kts
11-Oct-17 10:08 34.088103 -118.007335 80 5463ft 112kts
11-Oct-17 10:09 34.092815 -117.970743 75 5501ft 111kts
11-Oct-17 10:10 34.095171 -117.933713 90 5531ft 112kts
11-Oct-17 10:11 34.093979 -117.896229 88 5562ft 112kts
11-Oct-17 10:12 34.093974 -117.858819 90 5599ft 112kts
11-Oct-17 10:13 34.096270 -117.822178 56 5614ft 111kts
11-Oct-17 10:14 34.110099 -117.789293 58 5652ft 110kts
11-Oct-17 10:15 34.127338 -117.759407 47 5706ft 108kts
11-Oct-17 10:16 34.132920 -117.728810 118 5712ft 115kts
11-Oct-17 10:17 34.127523 -117.694541 82 5774ft 111kts
11-Oct-17 10:18 34.135101 -117.657837 71 5708ft 114kts
11-Oct-17 10:19 34.145362 -117.621620 68 5636ft 115kts
11-Oct-17 10:20 34.152021 -117.585036 122 5600ft 115kts
11-Oct-17 10:21 34.138316 -117.550320 112 5561ft 116kts
11-Oct-17 10:22 34.125807 -117.514458 119 5526ft 116kts
11-Oct-17 10:23 34.110147 -117.480636 116 5479ft 116kts
11-Oct-17 10:24 34.094156 -117.446858 123 5439ft 116kts
11-Oct-17 10:25 34.075824 -117.415206 125 5403ft 116kts
11-Oct-17 10:26 34.057942 -117.383257 111 5377ft 115kts
11-Oct-17 10:27 34.049479 -117.347001 101 5370ft 113kts
11-Oct-17 10:28 34.051162 -117.311296 69 5470ft 108kts
11-Oct-17 10:29 34.049335 -117.275269 85 5549ft 109kts
11-Oct-17 10:30 34.060064 -117.284760 259 5615ft 105kts
11-Oct-17 10:31 34.061869 -117.318440 276 5706ft 102kts
11-Oct-17 10:32 34.058032 -117.352778 260 5705ft 107kts
11-Oct-17 10:33 34.050851 -117.387823 257 5633ft 109kts
11-Oct-17 10:34 34.040719 -117.422007 249 5593ft 109kts
11-Oct-17 10:35 34.030720 -117.455753 290 5543ft 106kts
11-Oct-17 10:36 34.054236 -117.451787 42 5553ft 107kts
11-Oct-17 10:37 34.073201 -117.424618 89 5581ft 112kts
11-Oct-17 10:38 34.062598 -117.389816 92 5649ft 111kts
11-Oct-17 10:39 34.055633 -117.353741 104 5706ft 112kts
11-Oct-17 10:40 34.049074 -117.317184 103 5773ft 112kts
11-Oct-17 10:41 34.040247 -117.280591 105 5760ft 115kts
11-Oct-17 10:42 34.033193 -117.243677 98 5570ft 112kts
11-Oct-17 10:43 34.026247 -117.207038 99 5283ft 111kts
11-Oct-17 10:44 34.019866 -117.170912 98 5003ft 110kts
11-Oct-17 10:45 34.014112 -117.135102 96 4739ft 108kts
11-Oct-17 10:46 34.010476 -117.100617 95 4491ft 104kts
11-Oct-17 10:47 33.995848 -117.109733 299 4093ft 117kts
11-Oct-17 10:48 34.019729 -117.133681 328 3602ft 108kts
11-Oct-17 10:49 34.044312 -117.148535 339 3421ft 87kts
11-Oct-17 10:50 34.068216 -117.149767 5 3244ft 89kts
11-Oct-17 10:51 34.092555 -117.147824 4 2914ft 86kts
11-Oct-17 10:52 34.106144 -117.155478 193 2495ft 88kts
11-Oct-17 10:53 34.092176 -117.137292 85 2459ft 82kts
11-Oct-17 10:54 34.089022 -117.114751 193 2193ft 76kts
11-Oct-17 10:55 34.085320 -117.135952 269 1639ft 62kts
11-Oct-17 10:56 34.084879 -117.157976 265 1966ft 78kts
11-Oct-17 10:57 34.096046 -117.173139 4 2601ft 90kts
11-Oct-17 10:58 34.100751 -117.147946 89 2556ft 87kts
11-Oct-17 10:59 34.096498 -117.120866 152 2211ft 80kts
11-Oct-17 11:00 34.085314 -117.133828 270 1683ft 59kts
11-Oct-17 11:01 34.084870 -117.155041 265 1889ft 77kts
11-Oct-17 11:02 34.096361 -117.169051 8 2588ft 91kts
11-Oct-17 11:03 34.103009 -117.142217 90 2630ft 98kts
11-Oct-17 11:04 34.099479 -117.117255 164 2468ft 75kts
11-Oct-17 11:05 34.085262 -117.127191 270 1879ft 67kts
11-Oct-17 11:06 34.085237 -117.145435 264 1573ft 10kts
11-Oct-17 11:07 34.084865 -117.145479 85 1573ft 0kts
11-Oct-17 11:08 34.084860 -117.143558 88 1573ft 7kts
11-Oct-17 11:09 34.084487 -117.141210 85 1573ft 0kts
11-Oct-17 11:10 34.084487 -117.141210 85 1573ft 0kts
11-Oct-17 11:11 34.084487 -117.141210 85 1573ft 0kts

Navigation Log

Ident Type
Flight plan parsing failed, navigation log unavailable